KRRL/RRL METAR and TAF weather

Enter ICAO airport designator
Station Type Date Time Source
KRRL METAR 2022/11/26 09:35 UTC NOAA

KRRL 260935Z AUTO 22003KT 10SM CLR 01/M02 A2988 RMK AO2 T00131023 TSNO


Station Type Date Time Source
KRRL Decoded METAR 2022/11/26 09:35 UTC NOAA

Merrill, Merrill Municipal Airport, WI, United States (KRRL) 45-11N 089-42W
Nov 26, 2022 - 04:35 AM EST / 2022.11.26 0935 UTC
Wind: from the SW (220 degrees) at 3 MPH (3 KT):0
Visibility: 10 mile(s):0
Sky conditions: clear
Temperature: 34.3 F (1.3 C)
Dew Point: 27.9 F (-2.3 C)
Relative Humidity: 76%
Pressure (altimeter): 29.88 in. Hg (1011 hPa)
ob: KRRL 260935Z AUTO 22003KT 10SM CLR 01/M02 A2988 RMK AO2 T00131023 TSNO
cycle: 9

Station Type Date Time Source
KRRL TAF UTC NOAA

Error!

Example: see airport list